Time;durP1;ratioP1;P1;durP2;ratioP2;P2;SDS_P1;SDS_P2;PMS_P1;PMS_P2;Temp;Humidity;BMP_temperature;BMP_pressure;BME280_temperature;BME280_humidity;BME280_pressure;Samples;Min_cycle;Max_cycle;Signal;HPM_P1;HPM_P2
2022/08/11 00:00:05;;;;;;;2.90;1.60;;;;;;;29.42;38.00;100974.20;104629;1308;61545;-81
2022/08/11 00:02:33;;;;;;;1.70;1.30;;;;;;;29.42;38.01;100976.02;104433;1309;72903;-81
2022/08/11 00:05:14;;;;;;;2.20;1.50;;;;;;;29.41;38.13;100982.05;104581;1309;73869;-81
2022/08/11 00:07:42;;;;;;;2.70;1.60;;;;;;;29.41;37.96;100986.26;104484;1309;61260;-81
2022/08/11 00:10:13;;;;;;;2.70;1.50;;;;;;;29.41;38.20;100985.77;104608;1309;60373;-82
2022/08/11 00:12:38;;;;;;;2.90;1.50;;;;;;;29.40;37.99;100983.44;104516;1309;71850;-84
2022/08/11 00:15:04;;;;;;;2.40;1.60;;;;;;;29.40;38.31;100980.90;104422;1309;60657;-82
2022/08/11 00:17:31;;;;;;;2.80;1.50;;;;;;;29.41;38.20;100981.42;104546;1308;60472;-80
2022/08/11 00:20:06;;;;;;;2.10;1.50;;;;;;;29.40;38.03;100984.19;104508;1309;60482;-81
2022/08/11 00:22:32;;;;;;;2.10;1.40;;;;;;;29.40;38.14;100980.95;104444;1309;73919;-81
2022/08/11 00:24:58;;;;;;;1.90;1.40;;;;;;;29.40;38.06;100978.77;104491;1309;60543;-81
2022/08/11 00:27:33;;;;;;;2.40;1.50;;;;;;;29.39;38.19;100979.35;104566;1308;60455;-81
2022/08/11 00:29:59;;;;;;;1.90;1.50;;;;;;;29.39;38.10;100976.84;104473;1309;60467;-82
2022/08/11 00:32:24;;;;;;;2.40;1.70;;;;;;;29.39;38.10;100982.98;104506;1309;60850;-82
2022/08/11 00:34:50;;;;;;;2.20;1.50;;;;;;;29.40;37.94;100979.89;104580;1309;60631;-81
2022/08/11 00:37:20;;;;;;;1.80;1.50;;;;;;;29.39;38.20;100978.63;104591;1308;60431;-80
2022/08/11 00:39:49;;;;;;;2.30;1.60;;;;;;;29.39;38.07;100979.73;104502;1309;61425;-81
2022/08/11 00:42:57;;;;;;;2.80;2.00;;;;;;;29.39;38.40;100971.60;104509;1309;73722;-82
2022/08/11 00:45:40;;;;;;;2.40;1.60;;;;;;;29.38;38.21;100973.86;104558;1307;73044;-82
2022/08/11 00:48:10;;;;;;;1.80;1.40;;;;;;;29.38;38.39;100973.87;104573;1309;60396;-83
2022/08/11 00:50:48;;;;;;;1.80;1.40;;;;;;;29.38;38.07;100968.26;104511;1309;62765;-82
2022/08/11 00:53:35;;;;;;;2.30;1.60;;;;;;;29.39;38.21;100968.73;104562;1309;73880;-80
2022/08/11 00:56:12;;;;;;;1.80;1.50;;;;;;;29.38;38.21;100961.89;104498;1309;75291;-80
2022/08/11 00:59:15;;;;;;;2.80;1.70;;;;;;;29.38;38.26;100958.33;104634;1308;60575;-81
2022/08/11 01:02:01;;;;;;;2.90;1.50;;;;;;;29.38;38.34;100960.70;104600;1309;61501;-81
2022/08/11 01:04:42;;;;;;;2.40;1.50;;;;;;;29.38;38.27;100956.89;104592;1309;73980;-82
2022/08/11 01:07:32;;;;;;;2.00;1.60;;;;;;;29.37;38.43;100960.38;104597;1309;74922;-81
2022/08/11 01:10:26;;;;;;;2.80;1.50;;;;;;;29.37;38.39;100962.37;104635;1309;61503;-81
2022/08/11 01:13:09;;;;;;;2.20;1.50;;;;;;;29.37;38.35;100962.23;104587;1309;61274;-81
2022/08/11 01:16:04;;;;;;;2.10;1.40;;;;;;;29.37;38.44;100957.89;104535;1309;73698;-81
2022/08/11 01:18:44;;;;;;;2.80;1.40;;;;;;;29.37;38.33;100956.25;104571;1309;73979;-81
2022/08/11 01:21:46;;;;;;;1.80;1.20;;;;;;;29.37;38.41;100956.62;104628;1308;60898;-80
2022/08/11 01:24:43;;;;;;;1.50;1.30;;;;;;;29.36;38.41;100954.31;104495;1309;60450;-80
2022/08/11 01:27:49;;;;;;;2.40;1.70;;;;;;;29.36;38.40;100952.88;104509;1309;73835;-80
2022/08/11 01:30:45;;;;;;;1.70;1.40;;;;;;;29.35;38.34;100950.60;104570;1308;74872;-81
2022/08/11 01:33:53;;;;;;;1.70;1.30;;;;;;;29.35;38.35;100949.91;104582;1309;61406;-81
2022/08/11 01:36:41;;;;;;;3.20;1.60;;;;;;;29.34;38.57;100946.90;104295;1313;61609;-81
2022/08/11 01:39:36;;;;;;;2.90;1.50;;;;;;;29.35;38.40;100942.89;104569;1308;72827;-81
2022/08/11 01:45:25;;;;;;;1.60;1.40;;;;;;;29.34;38.71;100945.65;104543;1308;61444;-82
2022/08/11 01:48:48;;;;;;;3.40;1.50;;;;;;;29.34;38.63;100944.20;104526;1308;60464;-80
2022/08/11 01:51:51;;;;;;;1.90;1.60;;;;;;;29.34;38.85;100941.35;104282;1315;73802;-81
2022/08/11 01:54:47;;;;;;;2.50;1.50;;;;;;;29.34;38.57;100942.45;104273;1315;74051;-81
2022/08/11 01:57:46;;;;;;;2.00;1.30;;;;;;;29.34;38.91;100941.92;104114;1315;61377;-80
2022/08/11 02:00:21;;;;;;;2.30;1.60;;;;;;;29.33;38.77;100936.89;104288;1314;61663;-80
2022/08/11 02:02:55;;;;;;;2.20;1.50;;;;;;;29.33;38.66;100937.41;104212;1315;73710;-80
2022/08/11 02:05:59;;;;;;;1.90;1.50;;;;;;;29.34;38.84;100934.10;104284;1315;74024;-80
2022/08/11 02:08:35;;;;;;;1.70;1.20;;;;;;;29.33;38.68;100933.47;103757;1313;60558;-80
2022/08/11 02:11:29;;;;;;;1.70;1.50;;;;;;;29.33;38.71;100931.05;104276;1315;60502;-80
2022/08/11 02:14:02;;;;;;;1.70;1.50;;;;;;;29.33;38.72;100927.98;104263;1315;72951;-80
2022/08/11 02:16:39;;;;;;;2.10;1.50;;;;;;;29.33;38.83;100928.18;104290;1314;74760;-80
2022/08/11 02:25:22;;;;;;;1.90;1.40;;;;;;;29.33;38.77;100925.10;104493;1309;74198;-80
2022/08/11 02:28:01;;;;;;;2.10;1.40;;;;;;;29.33;38.90;100923.52;104475;1309;74000;-80
2022/08/11 02:30:31;;;;;;;1.90;1.30;;;;;;;29.32;38.91;100922.64;104507;1309;61339;-81
2022/08/11 02:33:26;;;;;;;2.30;1.50;;;;;;;29.32;39.02;100922.33;104494;1309;60505;-81
2022/08/11 02:36:08;;;;;;;1.60;1.50;;;;;;;29.32;38.95;100927.20;104250;1313;72916;-81
2022/08/11 02:38:44;;;;;;;1.70;1.20;;;;;;;29.32;39.00;100925.22;104360;1313;73721;-81
2022/08/11 02:44:05;;;;;;;1.90;1.40;;;;;;;29.32;38.97;100923.93;104326;1313;61311;-80
2022/08/11 02:46:50;;;;;;;2.30;1.40;;;;;;;29.32;38.91;100925.23;104325;1313;74049;-80
2022/08/11 02:49:53;;;;;;;2.00;1.50;;;;;;;29.31;39.06;100920.77;104281;1313;74994;-80
2022/08/11 02:52:46;;;;;;;2.30;1.40;;;;;;;29.31;39.11;100919.38;104285;1313;60393;-80
2022/08/11 02:55:19;;;;;;;2.00;1.60;;;;;;;29.31;39.25;100923.38;104191;1313;62372;-80
2022/08/11 02:58:12;;;;;;;2.00;1.30;;;;;;;29.31;39.08;100928.95;104263;1315;73681;-81
2022/08/11 03:00:56;;;;;;;2.00;1.40;;;;;;;29.31;39.16;100931.86;104270;1313;73894;-81
2022/08/11 03:03:32;;;;;;;2.00;1.60;;;;;;;29.30;39.01;100926.48;104280;1313;60587;-80
2022/08/11 03:06:21;;;;;;;1.70;1.40;;;;;;;29.31;39.18;100930.62;102946;1313;1848762;-81
2022/08/11 03:08:52;;;;;;;2.20;1.50;;;;;;;29.31;38.98;100929.91;103797;1317;72817;-82
2022/08/11 03:17:36;;;;;;;1.90;1.50;;;;;;;29.30;39.04;100931.95;104243;1316;60954;-81
2022/08/11 03:20:11;;;;;;;1.90;1.40;;;;;;;29.30;39.27;100930.68;104120;1316;72841;-80
2022/08/11 03:22:48;;;;;;;1.70;1.50;;;;;;;29.30;39.14;100931.23;104222;1316;73786;-81
2022/08/11 03:25:19;;;;;;;2.00;1.50;;;;;;;29.31;39.09;100933.92;104242;1316;60508;-81
2022/08/11 03:28:02;;;;;;;2.70;1.50;;;;;;;29.31;39.14;100940.78;104141;1316;60516;-81
2022/08/11 03:30:33;;;;;;;1.60;1.30;;;;;;;29.30;39.28;100939.77;104172;1316;74234;-81
2022/08/11 03:36:17;;;;;;;1.60;1.30;;;;;;;29.30;39.25;100941.20;104154;1316;61333;-82
2022/08/11 03:39:08;;;;;;;1.90;1.40;;;;;;;29.29;39.32;100944.17;104181;1316;61413;-82
2022/08/11 03:42:09;;;;;;;2.60;1.50;;;;;;;29.30;39.33;100940.89;104022;1317;73166;-81
2022/08/11 03:44:52;;;;;;;2.40;1.50;;;;;;;29.30;39.09;100941.60;103474;1320;74000;-81
2022/08/11 03:47:40;;;;;;;2.00;1.40;;;;;;;29.30;39.27;100940.71;104027;1316;61461;-81
2022/08/11 03:50:06;;;;;;;1.70;1.30;;;;;;;29.30;39.13;100943.95;104144;1315;60512;-81
2022/08/11 03:52:50;;;;;;;2.20;1.40;;;;;;;29.30;39.22;100945.77;104129;1316;60469;-81
2022/08/11 03:55:46;;;;;;;1.50;1.30;;;;;;;29.30;39.06;100940.34;104113;1316;74033;-82
2022/08/11 03:58:24;;;;;;;3.10;1.50;;;;;;;29.30;39.34;100945.06;103741;1316;60624;-82
2022/08/11 04:00:58;;;;;;;3.00;1.50;;;;;;;29.30;39.14;100946.16;104122;1316;60892;-82
2022/08/11 04:03:39;;;;;;;3.40;1.80;;;;;;;29.29;39.10;100947.27;104144;1316;73616;-82
2022/08/11 04:06:24;;;;;;;6.10;1.80;;;;;;;29.26;38.98;100947.17;104135;1316;73942;-82
2022/08/11 04:09:05;;;;;;;3.80;1.70;;;;;;;29.24;38.65;100953.20;103558;1320;60500;-81
2022/08/11 04:11:33;;;;;;;5.20;2.10;;;;;;;29.22;38.59;100951.24;103475;1320;61836;-81
2022/08/11 04:17:43;;;;;;;4.30;2.00;;;;;;;29.17;37.97;100953.02;103440;1319;74943;-82
2022/08/11 04:20:22;;;;;;;3.80;2.00;;;;;;;29.16;37.83;100955.45;103485;1319;61597;-80
2022/08/11 04:23:11;;;;;;;5.30;2.10;;;;;;;29.15;37.50;100955.38;104300;1314;60477;-81
2022/08/11 04:26:14;;;;;;;4.30;2.10;;;;;;;29.15;37.15;100954.76;103344;1320;73855;-81
2022/08/11 04:29:23;;;;;;;5.30;2.20;;;;;;;29.12;37.14;100957.55;102733;1326;74163;-80
2022/08/11 04:31:59;;;;;;;6.80;2.50;;;;;;;29.10;37.06;100953.05;102638;1328;60497;-82
2022/08/11 04:34:54;;;;;;;5.10;2.20;;;;;;;29.08;36.84;100949.01;102744;1325;60563;-82
2022/08/11 04:38:05;;;;;;;6.30;2.10;;;;;;;29.08;36.59;100947.64;102430;1332;73954;-82
2022/08/11 04:41:13;;;;;;;5.40;2.30;;;;;;;29.06;36.36;100946.68;102184;1335;73919;-82
2022/08/11 04:43:51;;;;;;;5.60;2.40;;;;;;;29.05;36.39;100948.27;102360;1335;60396;-83
2022/08/11 04:46:35;;;;;;;5.50;2.40;;;;;;;29.04;36.00;100950.14;102308;1334;60578;-81
2022/08/11 05:03:13;;;;;;;3.80;2.10;;;;;;;29.00;35.53;100950.48;101703;1343;71834;-82
2022/08/11 05:06:09;;;;;;;4.70;2.40;;;;;;;29.00;35.43;100954.79;101906;1334;73959;-82
2022/08/11 05:08:53;;;;;;;4.60;2.10;;;;;;;28.99;35.26;100955.39;102135;1335;60696;-82
2022/08/11 05:11:39;;;;;;;6.90;2.30;;;;;;;29.00;35.22;100959.33;102111;1335;61342;-81
2022/08/11 05:37:02;;;;;;;7.30;2.50;;;;;;;28.90;34.62;100965.77;103901;1316;72725;-80
2022/08/11 05:56:17;;;;;;;5.20;2.10;;;;;;;28.81;34.33;100960.14;104450;1312;60397;-80
2022/08/11 05:58:45;;;;;;;5.30;2.20;;;;;;;28.80;33.80;100961.57;104338;1311;73700;-80
2022/08/11 06:01:23;;;;;;;10.00;2.10;;;;;;;28.80;34.15;100961.77;104485;1309;74003;-80
2022/08/11 06:06:34;;;;;;;4.80;2.20;;;;;;;28.80;34.02;100965.58;104496;1309;60369;-80
2022/08/11 06:08:59;;;;;;;5.60;2.00;;;;;;;28.79;33.82;100963.98;104536;1308;61278;-81
2022/08/11 06:11:25;;;;;;;8.40;2.50;;;;;;;28.81;33.72;100964.77;104526;1309;60437;-80
2022/08/11 06:13:53;;;;;;;6.90;2.40;;;;;;;28.82;33.61;100963.69;104541;1306;60575;-82
2022/08/11 06:16:25;;;;;;;6.40;2.00;;;;;;;28.83;33.72;100962.30;104508;1309;60343;-80
2022/08/11 06:18:51;;;;;;;4.20;2.00;;;;;;;28.85;33.92;100964.69;104464;1309;73795;-80
2022/08/11 06:21:17;;;;;;;5.80;2.20;;;;;;;28.86;33.54;100957.13;104584;1308;60552;-80
2022/08/11 06:23:43;;;;;;;4.00;2.10;;;;;;;28.87;33.75;100955.34;104447;1309;60425;-80
2022/08/11 06:26:11;;;;;;;8.10;2.20;;;;;;;28.88;33.59;100955.81;104482;1309;60346;-80
2022/08/11 06:28:38;;;;;;;5.10;2.00;;;;;;;28.89;33.42;100957.11;104450;1309;60642;-80
2022/08/11 06:31:16;;;;;;;4.10;2.10;;;;;;;28.91;33.61;100958.23;104465;1309;60333;-80
2022/08/11 06:34:04;;;;;;;8.50;2.10;;;;;;;28.92;33.31;100954.66;104594;1309;60455;-80
2022/08/11 06:36:48;;;;;;;4.20;2.30;;;;;;;28.93;33.42;100953.09;104560;1308;60497;-80
2022/08/11 06:39:48;;;;;;;4.70;2.20;;;;;;;28.93;33.14;100948.42;104600;1309;73759;-80
2022/08/11 06:42:24;;;;;;;5.40;2.10;;;;;;;28.93;33.37;100948.98;104469;1309;76149;-80
2022/08/11 06:45:10;;;;;;;5.10;2.20;;;;;;;28.94;33.50;100947.81;104495;1309;60597;-83
2022/08/11 06:47:35;;;;;;;3.70;2.10;;;;;;;28.95;33.16;100946.77;104330;1308;60540;-80
2022/08/11 06:52:45;;;;;;;7.40;2.20;;;;;;;28.96;33.21;100941.27;104461;1309;73884;-81
2022/08/11 06:55:14;;;;;;;4.60;2.10;;;;;;;28.97;33.23;100940.45;104402;1309;59298;-82
2022/08/11 07:00:27;;;;;;;4.80;2.20;;;;;;;28.98;33.14;100944.81;104377;1309;72842;-80
2022/08/11 07:03:02;;;;;;;4.70;2.30;;;;;;;29.00;33.14;100946.48;104587;1308;73916;-80
2022/08/11 07:05:48;;;;;;;5.70;2.30;;;;;;;29.01;33.11;100947.45;104500;1309;60507;-82
2022/08/11 07:17:16;;;;;;;4.60;2.30;;;;;;;29.02;32.98;100957.46;104441;1309;61847;-82
2022/08/11 07:30:48;;;;;;;4.70;2.10;;;;;;;29.05;32.86;100962.04;104582;1308;61407;-82
2022/08/11 07:33:13;;;;;;;5.00;2.30;;;;;;;29.05;32.81;100960.77;104375;1309;72684;-82
2022/08/11 07:35:44;;;;;;;3.20;1.80;;;;;;;29.06;32.63;100957.11;104311;1309;60530;-82
2022/08/11 07:38:15;;;;;;;4.60;2.20;;;;;;;29.06;32.78;100957.98;104576;1309;61310;-82
2022/08/11 07:40:42;;;;;;;5.10;2.00;;;;;;;29.06;32.73;100952.15;104607;1309;61350;-82
2022/08/11 07:43:07;;;;;;;2.40;1.70;;;;;;;29.07;32.75;100947.19;104530;1309;60471;-82
2022/08/11 07:53:45;;;;;;;4.10;2.10;;;;;;;29.08;32.57;100941.42;104458;1309;73846;-81
2022/08/11 07:56:15;;;;;;;3.90;1.90;;;;;;;29.09;32.53;100937.39;104532;1308;60423;-81
2022/08/11 08:17:59;;;;;;;4.10;1.70;;;;;;;29.14;32.88;100930.00;104170;1309;73915;-80
2022/08/11 08:20:31;;;;;;;3.00;1.80;;;;;;;29.15;32.82;100930.05;104415;1309;60264;-80
2022/08/11 08:22:59;;;;;;;4.90;2.00;;;;;;;29.16;32.59;100930.48;104473;1309;60649;-80
2022/08/11 08:25:30;;;;;;;4.60;2.00;;;;;;;29.17;32.79;100927.80;104340;1309;74030;-80
2022/08/11 08:27:57;;;;;;;8.00;2.20;;;;;;;29.18;32.91;100927.70;104269;1309;74025;-82
2022/08/11 08:33:08;;;;;;;4.70;2.10;;;;;;;29.20;32.64;100931.28;104548;1309;60502;-83
2022/08/11 08:35:35;;;;;;;5.00;2.00;;;;;;;29.21;32.54;100933.19;104456;1309;60489;-83
2022/08/11 08:38:00;;;;;;;3.40;1.80;;;;;;;29.22;32.70;100936.52;104405;1309;60563;-83
2022/08/11 08:40:26;;;;;;;3.20;1.80;;;;;;;29.23;32.75;100937.89;104453;1309;60379;-83
2022/08/11 08:42:54;;;;;;;5.80;2.30;;;;;;;29.24;32.70;100934.33;104532;1309;60631;-83
2022/08/11 08:45:20;;;;;;;4.30;2.20;;;;;;;29.25;32.58;100939.13;104494;1309;60443;-82
2022/08/11 08:48:04;;;;;;;4.70;2.00;;;;;;;29.25;32.78;100938.77;104159;1309;61842;-82
2022/08/11 08:53:23;;;;;;;4.40;1.90;;;;;;;29.26;32.62;100934.67;104330;1309;61778;-81
2022/08/11 08:55:50;;;;;;;5.60;2.10;;;;;;;29.27;32.63;100926.63;104230;1309;73688;-81
2022/08/11 08:58:18;;;;;;;4.20;2.00;;;;;;;29.28;32.50;100931.08;104372;1308;74254;-81
2022/08/11 09:00:44;;;;;;;3.60;1.90;;;;;;;29.29;32.78;100927.21;104357;1309;61285;-81
2022/08/11 09:03:10;;;;;;;3.30;2.00;;;;;;;29.29;32.54;100932.05;104402;1309;61159;-81
2022/08/11 09:05:35;;;;;;;3.20;1.90;;;;;;;29.30;32.62;100933.98;104346;1309;60619;-81
2022/08/11 09:08:20;;;;;;;5.20;2.10;;;;;;;29.30;32.71;100933.04;104307;1308;75283;-81
2022/08/11 09:13:43;;;;;;;2.70;1.70;;;;;;;29.31;32.51;100930.05;104582;1309;60368;-80
2022/08/11 09:16:08;;;;;;;3.30;1.90;;;;;;;29.31;32.55;100929.13;104529;1309;73824;-80
2022/08/11 09:18:34;;;;;;;3.80;2.00;;;;;;;29.31;32.33;100918.63;104434;1309;60906;-81
2022/08/11 09:21:01;;;;;;;3.80;2.00;;;;;;;29.31;32.29;100917.92;104536;1309;60476;-80
2022/08/11 09:28:55;;;;;;;4.20;2.00;;;;;;;29.31;32.27;100919.20;104416;1309;73793;-80
2022/08/11 09:31:21;;;;;;;4.00;2.10;;;;;;;29.31;32.54;100916.48;104416;1309;60488;-80
2022/08/11 09:33:47;;;;;;;4.10;2.10;;;;;;;29.31;32.27;100915.77;104526;1309;61037;-80
2022/08/11 09:41:41;;;;;;;3.30;1.90;;;;;;;29.31;32.34;100909.42;104384;1309;61506;-80
2022/08/11 09:46:51;;;;;;;3.50;1.90;;;;;;;29.31;32.22;100904.99;104377;1309;71571;-81
2022/08/11 09:49:18;;;;;;;3.90;2.10;;;;;;;29.32;32.28;100903.16;104529;1308;60555;-81
2022/08/11 09:51:44;;;;;;;4.10;1.90;;;;;;;29.32;32.18;100902.55;104476;1310;60664;-81
2022/08/11 09:54:09;;;;;;;4.50;2.30;;;;;;;29.33;32.39;100904.50;104561;1309;61212;-81
2022/08/11 09:59:20;;;;;;;5.10;2.50;;;;;;;29.33;32.45;100902.13;104458;1309;73990;-80
2022/08/11 10:01:48;;;;;;;3.60;2.60;;;;;;;29.33;32.58;100903.61;104230;1309;60396;-83
2022/08/11 10:04:16;;;;;;;5.30;2.50;;;;;;;29.33;32.53;100901.94;104620;1307;61587;-83
2022/08/11 10:07:05;;;;;;;4.50;2.80;;;;;;;29.33;32.67;100899.78;104363;1309;73679;-81
2022/08/11 10:09:41;;;;;;;4.40;2.70;;;;;;;29.33;32.40;100902.63;105402;1308;74383;-81
2022/08/11 10:12:10;;;;;;;4.60;3.00;;;;;;;29.33;32.61;100895.17;105299;1308;58387;-81
2022/08/11 10:17:31;;;;;;;5.80;3.00;;;;;;;29.35;32.34;100894.94;104290;1309;74269;-81
2022/08/11 10:19:58;;;;;;;5.10;2.80;;;;;;;29.37;32.42;100894.23;105398;1308;74370;-84
2022/08/11 10:27:57;;;;;;;4.10;2.80;;;;;;;29.39;32.33;100889.98;104341;1309;72774;-80
2022/08/11 10:35:54;;;;;;;4.80;2.80;;;;;;;29.40;32.09;100887.40;104486;1308;60468;-80
2022/08/11 10:38:20;;;;;;;4.00;2.70;;;;;;;29.40;32.32;100891.55;104451;1309;60463;-81
2022/08/11 10:43:01;;;;;;;4.00;2.70;;;;;;;29.40;32.09;100889.75;104454;1307;60561;-81
2022/08/11 10:43:31;;;;;;;4.20;2.70;;;;;;;29.39;32.29;100887.80;104489;1309;60606;-81
2022/08/11 10:48:42;;;;;;;3.90;2.40;;;;;;;29.39;32.08;100879.69;104415;1309;73922;-81
2022/08/11 10:51:13;;;;;;;3.50;2.60;;;;;;;29.39;32.06;100872.64;104525;1309;60447;-81
2022/08/11 10:59:26;;;;;;;3.50;2.40;;;;;;;29.38;32.06;100870.77;104353;1308;73800;-82
2022/08/11 11:01:52;;;;;;;5.10;2.90;;;;;;;29.38;32.19;100872.27;104598;1308;74914;-82
2022/08/11 11:04:26;;;;;;;3.40;2.50;;;;;;;29.38;32.00;100868.23;104342;1309;60484;-81
2022/08/11 11:07:23;;;;;;;3.80;2.50;;;;;;;29.38;32.16;100865.50;104337;1308;60319;-81
2022/08/11 11:09:52;;;;;;;6.50;2.70;;;;;;;29.37;32.02;100863.95;104149;1315;73320;-82
2022/08/11 11:18:17;;;;;;;3.80;2.20;;;;;;;29.38;32.06;100866.73;103945;1315;60626;-82
2022/08/11 11:20:50;;;;;;;4.20;2.50;;;;;;;29.39;32.12;100868.13;103981;1318;73644;-81
2022/08/11 11:23:46;;;;;;;3.80;2.40;;;;;;;29.40;32.05;100867.68;104132;1315;75100;-81
2022/08/11 11:26:33;;;;;;;3.50;2.20;;;;;;;29.39;32.31;100864.08;104012;1314;61399;-81
2022/08/11 11:29:06;;;;;;;4.50;2.60;;;;;;;29.39;32.03;100865.88;104923;1314;60383;-82
2022/08/11 11:31:47;;;;;;;4.10;2.30;;;;;;;29.40;31.88;100866.33;104183;1315;72778;-82
2022/08/11 11:34:50;;;;;;;3.50;2.30;;;;;;;29.41;32.28;100862.50;104213;1315;74866;-81
2022/08/11 11:37:17;;;;;;;6.00;2.50;;;;;;;29.41;32.32;100867.56;104275;1315;60589;-81
2022/08/11 11:39:43;;;;;;;4.30;2.30;;;;;;;29.41;32.11;100867.91;104274;1315;60498;-81
2022/08/11 11:42:09;;;;;;;3.70;2.60;;;;;;;29.41;32.13;100869.53;104222;1315;60432;-81
2022/08/11 11:44:37;;;;;;;3.60;2.30;;;;;;;29.41;32.14;100866.10;104230;1315;60366;-81
2022/08/11 11:47:03;;;;;;;5.00;2.40;;;;;;;29.41;32.14;100867.19;104333;1309;61400;-81
2022/08/11 11:49:31;;;;;;;3.60;2.40;;;;;;;29.40;32.16;100866.16;104391;1310;60485;-81
2022/08/11 11:51:57;;;;;;;3.60;2.20;;;;;;;29.40;32.09;100866.56;104513;1309;72876;-81
2022/08/11 11:54:25;;;;;;;3.30;2.50;;;;;;;29.40;32.26;100859.67;104563;1309;60318;-81
2022/08/11 11:56:52;;;;;;;4.20;2.20;;;;;;;29.40;32.20;100855.66;104564;1309;60547;-81
2022/08/11 12:02:06;;;;;;;;;;;;;;;29.40;32.40;100851.91;104644;1309;71616;-81
2022/08/11 12:04:35;;;;;;;4.10;2.50;;;;;;;29.37;32.47;100849.23;104664;1309;60476;-81
2022/08/11 12:10:03;;;;;;;4.80;2.20;;;;;;;29.37;32.56;100847.05;104373;1312;61670;-81
2022/08/11 12:15:13;;;;;;;3.50;2.40;;;;;;;29.37;32.85;100843.46;104541;1309;74995;-81
2022/08/11 12:17:38;;;;;;;3.90;2.30;;;;;;;29.38;32.68;100840.31;104533;1309;60501;-81
2022/08/11 12:20:05;;;;;;;3.60;2.20;;;;;;;29.38;32.62;100841.37;104408;1309;60565;-81
2022/08/11 12:27:59;;;;;;;3.30;2.20;;;;;;;29.39;32.52;100840.42;104629;1309;61538;-80
2022/08/11 12:30:24;;;;;;;3.80;2.40;;;;;;;29.39;32.71;100838.41;104691;1309;60433;-81
2022/08/11 12:32:50;;;;;;;2.70;2.00;;;;;;;29.39;32.99;100835.08;104653;1308;60866;-81
2022/08/11 12:35:16;;;;;;;3.50;2.10;;;;;;;29.40;32.83;100832.33;104570;1309;60482;-81
2022/08/11 12:37:43;;;;;;;5.00;2.20;;;;;;;29.40;33.07;100830.86;104645;1308;60449;-81
2022/08/11 12:45:45;;;;;;;4.20;2.30;;;;;;;29.40;33.02;100827.52;104664;1307;74378;-80
2022/08/11 12:53:56;;;;;;;4.10;2.30;;;;;;;29.40;33.30;100826.43;104608;1307;73707;-81
2022/08/11 13:07:19;;;;;;;3.00;2.10;;;;;;;29.41;33.23;100820.73;104592;1307;74955;-81
2022/08/11 13:09:45;;;;;;;3.00;2.20;;;;;;;29.41;33.45;100820.55;104542;1309;60478;-81
2022/08/11 13:14:56;;;;;;;3.20;2.10;;;;;;;29.41;33.43;100813.99;104524;1308;72769;-81
2022/08/11 13:17:23;;;;;;;4.50;2.20;;;;;;;29.41;33.32;100810.77;104628;1309;76040;-81
2022/08/11 13:19:49;;;;;;;3.00;1.90;;;;;;;29.41;33.48;100808.01;104623;1309;60516;-81
2022/08/11 13:22:19;;;;;;;3.10;2.00;;;;;;;29.42;33.28;100808.15;104527;1309;60487;-81
2022/08/11 13:24:44;;;;;;;4.30;2.00;;;;;;;29.42;33.59;100807.09;104561;1309;72799;-81
2022/08/11 13:27:13;;;;;;;3.10;2.10;;;;;;;29.42;33.70;100810.49;104578;1309;60268;-81
2022/08/11 13:29:40;;;;;;;3.00;1.90;;;;;;;29.43;33.51;100811.33;104611;1307;60712;-82
2022/08/11 13:32:06;;;;;;;3.60;2.20;;;;;;;29.42;33.66;100809.74;104563;1308;60496;-80
2022/08/11 13:34:31;;;;;;;3.00;1.90;;;;;;;29.43;33.78;100812.61;104528;1309;60577;-81
2022/08/11 13:36:59;;;;;;;3.20;2.30;;;;;;;29.43;33.47;100811.08;104666;1309;60408;-81
2022/08/11 13:39:27;;;;;;;4.50;2.20;;;;;;;29.43;33.82;100808.91;104575;1307;60378;-81
2022/08/11 13:41:55;;;;;;;2.90;1.80;;;;;;;29.44;33.49;100808.13;104557;1308;60601;-81
2022/08/11 13:44:20;;;;;;;4.10;2.30;;;;;;;29.44;33.66;100803.58;104543;1309;73860;-81
2022/08/11 13:46:46;;;;;;;2.80;1.90;;;;;;;29.45;33.59;100798.25;104510;1309;60503;-81
2022/08/11 13:49:13;;;;;;;3.70;2.10;;;;;;;29.45;33.73;100800.20;104597;1308;60656;-81
2022/08/11 13:51:38;;;;;;;3.90;2.60;;;;;;;29.46;33.86;100799.99;104560;1309;60478;-81
2022/08/11 13:54:39;;;;;;;3.60;2.30;;;;;;;29.46;33.69;100793.58;104666;1309;60552;-81
2022/08/11 13:57:07;;;;;;;2.70;1.90;;;;;;;29.46;33.68;100791.09;104297;1315;74983;-81
2022/08/11 13:59:32;;;;;;;3.60;2.10;;;;;;;29.46;33.80;100787.60;104297;1315;61527;-81
2022/08/11 14:02:02;;;;;;;3.00;1.90;;;;;;;29.47;33.77;100786.95;104202;1315;60652;-82
2022/08/11 14:04:56;;;;;;;3.60;2.20;;;;;;;29.48;33.85;100783.45;104221;1315;73716;-82
2022/08/11 14:07:23;;;;;;;3.20;2.10;;;;;;;29.48;33.92;100780.90;104178;1315;76019;-81
2022/08/11 14:09:57;;;;;;;4.50;2.00;;;;;;;29.49;33.87;100777.31;104249;1315;60375;-82
2022/08/11 14:15:21;;;;;;;2.90;1.80;;;;;;;29.50;33.80;100776.46;104189;1315;73902;-80
2022/08/11 14:18:02;;;;;;;3.80;2.20;;;;;;;29.51;33.86;100779.62;104116;1315;73923;-81
2022/08/11 14:22:05;;;;;;;2.70;1.80;;;;;;;29.52;33.78;100778.08;104280;1315;61529;-80
2022/08/11 14:23:14;;;;;;;3.30;2.10;;;;;;;29.52;33.92;100776.59;104267;1314;61463;-81
2022/08/11 14:26:22;;;;;;;3.50;2.00;;;;;;;29.53;33.84;100780.65;104192;1313;60596;-81
2022/08/11 14:28:25;;;;;;;3.50;1.90;;;;;;;29.54;34.02;100777.62;104082;1314;74976;-81
2022/08/11 14:30:56;;;;;;;3.10;2.00;;;;;;;29.55;34.14;100776.27;104105;1315;60623;-80
2022/08/11 14:33:22;;;;;;;3.20;1.90;;;;;;;29.56;33.83;100769.10;104310;1309;60621;-81
2022/08/11 14:35:47;;;;;;;2.80;1.70;;;;;;;29.57;34.07;100771.02;104476;1308;60491;-81
2022/08/11 14:38:13;;;;;;;3.10;2.10;;;;;;;29.57;34.15;100771.71;104567;1309;60583;-81
2022/08/11 14:48:53;;;;;;;3.40;2.10;;;;;;;29.58;34.01;100764.47;104598;1309;75348;-80
2022/08/11 14:51:20;;;;;;;4.10;2.00;;;;;;;29.58;34.10;100764.88;104561;1309;60603;-80
2022/08/11 14:53:46;;;;;;;3.40;1.90;;;;;;;29.59;34.25;100767.39;104549;1309;60449;-80
2022/08/11 14:58:55;;;;;;;2.70;2.00;;;;;;;29.58;34.22;100766.03;104492;1309;75016;-81
2022/08/11 15:04:05;;;;;;;3.40;2.00;;;;;;;29.58;33.92;100759.67;102748;1308;2069535;-81
2022/08/11 15:06:32;;;;;;;2.70;1.90;;;;;;;29.57;34.17;100759.55;104370;1307;60580;-82
2022/08/11 15:08:57;;;;;;;2.50;1.90;;;;;;;29.57;34.33;100756.83;104372;1309;60536;-81
2022/08/11 15:14:12;;;;;;;3.10;1.90;;;;;;;29.57;33.95;100753.08;104513;1309;60516;-80
2022/08/11 15:19:27;;;;;;;2.70;1.90;;;;;;;29.58;33.98;100749.34;104372;1308;75098;-81
2022/08/11 15:24:37;;;;;;;2.60;1.80;;;;;;;29.57;34.19;100750.46;104436;1308;60364;-81
2022/08/11 15:38:13;;;;;;;3.50;1.80;;;;;;;29.57;33.96;100749.64;104538;1309;73691;-81
2022/08/11 15:46:38;;;;;;;2.60;1.80;;;;;;;29.55;34.07;100755.09;104637;1309;60340;-82
2022/08/11 15:49:09;;;;;;;2.40;1.70;;;;;;;29.54;34.07;100748.99;104526;1309;72754;-82
2022/08/11 15:51:42;;;;;;;3.00;2.10;;;;;;;29.54;34.24;100744.00;104510;1309;75100;-82
2022/08/11 15:54:11;;;;;;;3.50;2.20;;;;;;;29.53;34.38;100746.03;104560;1309;61298;-81
2022/08/11 15:56:39;;;;;;;2.80;1.90;;;;;;;29.52;33.99;100742.70;104539;1308;60447;-81
2022/08/11 16:04:34;;;;;;;3.40;2.10;;;;;;;29.51;33.94;100745.77;104535;1309;60356;-81
2022/08/11 16:07:25;;;;;;;2.90;1.90;;;;;;;29.50;34.03;100743.69;104486;1309;60555;-81
2022/08/11 16:09:52;;;;;;;3.30;2.30;;;;;;;29.50;34.09;100737.53;104547;1308;72924;-81
2022/08/11 16:12:21;;;;;;;2.30;1.80;;;;;;;29.49;34.15;100739.09;104485;1308;73751;-81
2022/08/11 16:17:49;;;;;;;2.90;1.70;;;;;;;29.48;34.16;100741.20;104550;1309;60595;-81
2022/08/11 16:20:18;;;;;;;3.10;1.90;;;;;;;29.47;34.30;100742.73;104534;1308;72821;-81
2022/08/11 16:22:46;;;;;;;3.30;1.90;;;;;;;29.47;33.91;100743.13;104543;1309;74079;-81
2022/08/11 16:25:18;;;;;;;3.00;1.90;;;;;;;29.46;33.99;100750.79;104527;1309;60551;-80
2022/08/11 16:27:48;;;;;;;3.30;2.20;;;;;;;29.46;34.17;100749.52;104490;1309;62049;-80